createdAt,value
2019-04-14T00:00:53.281Z,33.23
2019-04-14T00:03:21.632Z,33.33
2019-04-14T00:05:49.752Z,33.00
2019-04-14T00:08:15.690Z,32.20
2019-04-14T00:10:42.179Z,33.37
2019-04-14T00:13:08.986Z,33.93
2019-04-14T00:15:39.541Z,32.20
2019-04-14T00:18:03.237Z,34.33
2019-04-14T00:20:29.376Z,34.73
2019-04-14T00:22:55.579Z,34.60
2019-04-14T00:25:21.667Z,34.53
2019-04-14T00:27:47.688Z,35.37
2019-04-14T00:30:15.053Z,34.50
2019-04-14T00:32:44.355Z,33.90
2019-04-14T00:35:16.741Z,33.73
2019-04-14T00:37:53.454Z,35.80
2019-04-14T00:40:26.999Z,34.13
2019-04-14T00:43:00.593Z,36.53
2019-04-14T00:45:40.482Z,36.13
2019-04-14T00:48:07.952Z,34.93
2019-04-14T00:50:29.809Z,36.63
2019-04-14T00:52:56.652Z,38.50
2019-04-14T00:55:22.645Z,37.73
2019-04-14T00:57:48.726Z,36.07
2019-04-14T01:00:17.635Z,36.47
2019-04-14T01:02:42.988Z,36.20
2019-04-14T01:05:09.305Z,37.17
2019-04-14T01:07:35.130Z,37.93
2019-04-14T01:10:01.819Z,39.77
2019-04-14T01:12:27.867Z,40.73
2019-04-14T01:14:53.970Z,39.27
2019-04-14T01:17:19.979Z,40.80
2019-04-14T01:19:46.281Z,41.17
2019-04-14T01:22:12.262Z,39.67
2019-04-14T01:24:38.219Z,40.20
2019-04-14T01:27:04.194Z,38.60
2019-04-14T01:29:30.212Z,37.60
2019-04-14T01:31:56.216Z,38.20
2019-04-14T01:34:22.085Z,38.20
2019-04-14T01:36:48.048Z,37.30
2019-04-14T01:39:13.970Z,37.07
2019-04-14T01:41:41.013Z,39.30
2019-04-14T01:44:06.941Z,46.73
2019-04-14T01:46:34.363Z,49.10
2019-04-14T01:49:00.745Z,51.70
2019-04-14T01:51:41.668Z,52.53
2019-04-14T01:54:19.290Z,55.07
2019-04-14T01:56:56.251Z,51.70
2019-04-14T01:59:22.170Z,54.40
2019-04-14T02:01:52.658Z,52.40
2019-04-14T02:04:18.601Z,55.70
2019-04-14T02:06:46.001Z,56.87
2019-04-14T02:09:12.639Z,54.33
2019-04-14T02:11:39.832Z,53.80
2019-04-14T02:14:06.101Z,55.80
2019-04-14T02:16:39.466Z,56.33
2019-04-14T02:19:00.369Z,58.73
2019-04-14T02:21:27.931Z,61.87
2019-04-14T02:23:54.053Z,62.03
2019-04-14T02:26:19.860Z,63.67
2019-04-14T02:28:46.225Z,63.53
2019-04-14T02:31:33.353Z,57.80
2019-04-14T02:34:13.008Z,55.87
2019-04-14T02:39:07.682Z,50.23
2019-04-14T02:46:36.233Z,50.67
2019-04-14T02:49:08.266Z,49.83
2019-04-14T02:51:25.697Z,48.83
2019-04-14T02:58:55.198Z,44.93
2019-04-14T03:01:27.632Z,45.13
2019-04-14T03:03:41.539Z,45.47
2019-04-14T03:06:05.388Z,43.83
2019-04-14T03:08:45.653Z,42.93
2019-04-14T03:11:01.653Z,44.37
2019-04-14T03:13:35.388Z,43.10
2019-04-14T03:15:55.854Z,38.90
2019-04-14T03:21:29.228Z,38.93
2019-04-14T03:24:07.064Z,41.87
2019-04-14T03:26:40.322Z,40.93
2019-04-14T03:29:12.827Z,42.47
2019-04-14T03:31:59.743Z,43.67
2019-04-14T03:37:18.520Z,41.07
2019-04-14T03:38:58.545Z,39.10
2019-04-14T03:43:46.432Z,40.73
2019-04-14T03:46:25.346Z,37.67
2019-04-14T03:51:24.483Z,39.47
2019-04-14T03:53:39.839Z,33.50
